Map

Track Data

SID SEASON NUMBER BASIN SUBBASIN NAME ISO_TIME NATURE LAT LON WMO_WIND WMO_PRES WMO_AGENCY TRACK_TYPE DIST2LAND LANDFALL IFLAG USA_AGENCY USA_ATCF_ID USA_LAT USA_LON USA_RECORD USA_STATUS USA_WIND USA_PRES USA_SSHS USA_R34_NE USA_R34_SE USA_R34_SW USA_R34_NW USA_R50_NE USA_R50_SE USA_R50_SW USA_R50_NW USA_R64_NE USA_R64_SE USA_R64_SW USA_R64_NW USA_POCI USA_ROCI USA_RMW USA_EYE TOKYO_LAT TOKYO_LON TOKYO_GRADE TOKYO_WIND TOKYO_PRES TOKYO_R50_DIR TOKYO_R50_LONG TOKYO_R50_SHORT TOKYO_R30_DIR TOKYO_R30_LONG TOKYO_R30_SHORT TOKYO_LAND CMA_LAT CMA_LON CMA_CAT CMA_WIND CMA_PRES HKO_LAT HKO_LON HKO_CAT HKO_WIND HKO_PRES NEWDELHI_LAT NEWDELHI_LON NEWDELHI_GRADE NEWDELHI_WIND NEWDELHI_PRES NEWDELHI_CI NEWDELHI_DP NEWDELHI_POCI REUNION_LAT REUNION_LON REUNION_TYPE REUNION_WIND REUNION_PRES REUNION_TNUM REUNION_CI REUNION_RMW REUNION_R34_NE REUNION_R34_SE REUNION_R34_SW REUNION_R34_NW REUNION_R50_NE REUNION_R50_SE REUNION_R50_SW REUNION_R50_NW REUNION_R64_NE REUNION_R64_SE REUNION_R64_SW REUNION_R64_NW BOM_LAT BOM_LON BOM_TYPE BOM_WIND BOM_PRES BOM_TNUM BOM_CI BOM_RMW BOM_R34_NE BOM_R34_SE BOM_R34_SW BOM_R34_NW BOM_R50_NE BOM_R50_SE BOM_R50_SW BOM_R50_NW BOM_R64_NE BOM_R64_SE BOM_R64_SW BOM_R64_NW BOM_ROCI BOM_POCI BOM_EYE BOM_POS_METHOD BOM_PRES_METHOD NADI_LAT NADI_LON NADI_CAT NADI_WIND NADI_PRES WELLINGTON_LAT WELLINGTON_LON WELLINGTON_WIND WELLINGTON_PRES DS824_LAT DS824_LON DS824_STAGE DS824_WIND DS824_PRES TD9636_LAT TD9636_LON TD9636_STAGE TD9636_WIND TD9636_PRES TD9635_LAT TD9635_LON TD9635_WIND TD9635_PRES TD9635_ROCI NEUMANN_LAT NEUMANN_LON NEUMANN_CLASS NEUMANN_WIND NEUMANN_PRES MLC_LAT MLC_LON MLC_CLASS MLC_WIND MLC_PRES USA_GUST BOM_GUST BOM_GUST_PER REUNION_GUST REUNION_GUST_PER USA_SEAHGT USA_SEARAD_NE USA_SEARAD_SE USA_SEARAD_SW USA_SEARAD_NW STORM_SPEED STORM_DIR
2002073S16161 2002 14 SP MM NOT_NAMED 2002-03-13 18:00:00 TS -16.1000 160.800 main 576 514 O___________O_ jtwc_sh SH192002 -16.1000 160.800 TD 25 1002 -1 -16.1000 160.800 TC 25 11 138
2002073S16161 2002 14 SP MM NOT_NAMED 2002-03-13 21:00:00 TS -16.5026 161.172 main 514 453 P___________P_ SH192002 -16.5026 161.172 TD 25 1002 -1 -16.5026 161.172 TC 25 11 136
2002073S16161 2002 14 SP MM NOT_NAMED 2002-03-14 00:00:00 TS -16.9000 161.600 main 453 386 O___________O_ jtwc_sh SH192002 -16.9000 161.600 TD 25 1002 -1 1008 125 15 -16.9000 161.600 TC 25 12 131
2002073S16161 2002 14 SP MM NOT_NAMED 2002-03-14 03:00:00 TS -17.2925 162.120 main 386 316 P___________P_ SH192002 -17.2925 162.120 TD 25 1002 -1 1007 125 30 -17.2925 162.120 TC 25 13 127
2002073S16161 2002 14 SP MM NOT_NAMED 2002-03-14 06:00:00 TS -17.7000 162.700 main 316 253 O___________O_ jtwc_sh SH192002 -17.7000 162.700 TD 25 1002 -1 1007 125 45 -17.7000 162.700 TC 25 14 127
2002073S16161 2002 14 SP MM NOT_NAMED 2002-03-14 09:00:00 TS -18.1122 163.271 main 249 180 P___________P_ SH192002 -18.1122 163.271 TD 25 1002 -1 1007 125 45 -18.1122 163.271 TC 25 15 128
2002073S16161 2002 14 SP MM NOT_NAMED 2002-03-14 12:00:00 TS -18.6000 163.900 main 180 119 O___________O_ jtwc_sh SH192002 -18.6000 163.900 TD 25 1002 -1 1007 125 45 -18.6000 163.900 TC 25 17 132
2002073S16161 2002 14 SP MM NOT_NAMED 2002-03-14 15:00:00 TS -19.2422 164.605 main 123 91 P___________P_ SH192002 -19.2422 164.605 TD 30 999 -1 1007 125 40 -19.2422 164.605 TC 30 19 133
2002073S16161 2002 14 SP MM NOT_NAMED 2002-03-14 18:00:00 TS -19.9000 165.400 main 99 88 O___________O_ jtwc_sh SH192002 -19.9000 165.400 TS 35 997 0 1007 125 35 -19.9000 165.400 TC 35 20 128
2002073S16161 2002 14 SP MM NOT_NAMED 2002-03-14 21:00:00 TS -20.4521 166.263 main 106 106 P___________P_ SH192002 -20.4521 166.263 TS 35 997 0 -20.4521 166.263 TC 35 20 121
2002073S16161 2002 14 SP MM NOT_NAMED 2002-03-15 00:00:00 TS -20.9111 167.178 main 121 121 O_______O___O_ jtwc_sh SH192002 -20.9000 167.200 TS 35 997 0 -21.0000 167.000 35 1004 -20.9000 167.200 TC 35 20 114
2002073S16161 2002 14 SP MM NOT_NAMED 2002-03-15 03:00:00 TS -21.2465 168.178 main 166 159 P_______P___P_ SH192002 -21.2447 168.186 TS 35 997 0 -21.2539 168.148 35 1003 -21.2447 168.186 TC 35 20 107
2002073S16161 2002 14 SP MM NOT_NAMED 2002-03-15 06:00:00 TS -21.5000 169.211 main 240 240 O_______O___O_ jtwc_sh SH192002 -21.5000 169.200 TS 35 997 0 1007 125 35 -21.5000 169.300 35 1002 -21.5000 169.200 TC 35 19 104
2002073S16161 2002 14 SP MM NOT_NAMED 2002-03-15 09:00:00 TS -21.7145 170.208 main 334 334 P___________P_ SH192002 -21.7145 170.208 TS 35 997 0 1007 125 35 -21.7145 170.208 TC 35 19 102
2002073S16161 2002 14 SP MM NOT_NAMED 2002-03-15 12:00:00 TS -21.9000 171.200 main 434 434 O___________O_ jtwc_sh SH192002 -21.9000 171.200 TS 35 997 0 1007 125 35 -21.9000 171.200 TC 35 18 102
2002073S16161 2002 14 SP MM NOT_NAMED 2002-03-15 15:00:00 TS -22.0992 172.150 main 535 535 P___________P_ SH192002 -22.0992 172.150 TS 35 997 0 1006 120 35 -22.0992 172.150 TC 35 18 103
2002073S16161 2002 14 SP MM NOT_NAMED 2002-03-15 18:00:00 TS -22.3000 173.100 main 627 597 O___________O_ jtwc_sh SH192002 -22.3000 173.100 TS 35 997 0 1006 115 35 -22.3000 173.100 TC 35 18 102
2002073S16161 2002 14 SP MM NOT_NAMED 2002-03-15 21:00:00 TS -22.4920 174.093 main 594 566 P___________P_ SH192002 -22.4920 174.093 TS 32 998 -1 1006 115 40 -22.4920 174.093 TC 32 19 102
2002073S16161 2002 14 SP MM NOT_NAMED 2002-03-16 00:00:00 TS -22.7000 175.100 main 563 551 O___________O_ jtwc_sh SH192002 -22.7000 175.100 TD 30 1000 -1 1006 115 45 -22.7000 175.100 TC 30 19 104
2002073S16161 2002 14 SP MM NOT_NAMED 2002-03-16 03:00:00 TS -22.9412 176.102 main 547 545 P___________P_ SH192002 -22.9412 176.102 TD 30 1000 -1 1006 115 45 -22.9412 176.102 TC 30 19 105
2002073S16161 2002 14 SP MM NOT_NAMED 2002-03-16 06:00:00 TS -23.2000 177.100 main 554 O___________O_ jtwc_sh SH192002 -23.2000 177.100 TD 30 1000 -1 1006 115 45 -23.2000 177.100 TC 30 19 106

Digital Typhoon Data and Search

About IBTrACS Database

This database is a web-friendly format of International Best Track Archive for Climate Stewardship (IBTrACS), a global best track data archive curated by NOAA dating back to 1842.

Updated: 2021-10-21